createdAt,value
2018-07-22T00:00:58.489Z,7.90
2018-07-22T00:03:26.617Z,8.07
2018-07-22T00:05:54.747Z,7.70
2018-07-22T00:08:22.921Z,7.50
2018-07-22T00:10:51.065Z,7.20
2018-07-22T00:13:19.214Z,7.90
2018-07-22T00:15:47.344Z,8.60
2018-07-22T00:18:15.493Z,8.03
2018-07-22T00:20:43.657Z,7.50
2018-07-22T00:23:11.817Z,7.20
2018-07-22T00:25:39.958Z,7.80
2018-07-22T00:28:08.097Z,6.47
2018-07-22T00:30:36.241Z,6.63
2018-07-22T00:33:04.423Z,7.50
2018-07-22T00:35:32.562Z,6.70
2018-07-22T00:38:00.702Z,6.70
2018-07-22T00:40:28.849Z,7.00
2018-07-22T00:42:56.973Z,6.63
2018-07-22T00:45:25.104Z,6.10
2018-07-22T00:47:53.250Z,6.40
2018-07-22T00:50:21.373Z,7.30
2018-07-22T00:52:49.505Z,7.53
2018-07-22T00:55:17.641Z,8.07
2018-07-22T00:57:45.764Z,6.60
2018-07-22T01:00:13.948Z,7.13
2018-07-22T01:02:42.069Z,7.27
2018-07-22T01:05:10.226Z,7.97
2018-07-22T01:07:38.356Z,6.93
2018-07-22T01:10:06.858Z,6.93
2018-07-22T01:12:34.981Z,7.80
2018-07-22T01:15:03.145Z,7.00
2018-07-22T01:17:31.265Z,7.37
2018-07-22T01:19:59.396Z,6.90
2018-07-22T01:22:27.496Z,7.20
2018-07-22T01:24:55.617Z,6.70
2018-07-22T01:27:23.730Z,7.40
2018-07-22T01:29:51.852Z,6.20
2018-07-22T01:32:19.964Z,7.03
2018-07-22T01:34:48.089Z,8.00
2018-07-22T01:37:16.210Z,7.90
2018-07-22T01:39:44.474Z,7.30
2018-07-22T01:42:12.584Z,7.67
2018-07-22T01:44:40.706Z,8.20
2018-07-22T01:47:08.816Z,8.33
2018-07-22T01:49:36.941Z,7.60
2018-07-22T01:52:05.049Z,8.10
2018-07-22T01:54:33.169Z,8.60
2018-07-22T01:57:01.281Z,8.53
2018-07-22T01:59:29.434Z,9.47
2018-07-22T02:01:57.665Z,9.20
2018-07-22T02:04:25.778Z,10.83
2018-07-22T02:06:53.896Z,10.40
2018-07-22T02:09:22.012Z,10.23
2018-07-22T02:11:50.128Z,10.50
2018-07-22T02:14:18.246Z,10.77
2018-07-22T02:16:46.377Z,10.27
2018-07-22T02:19:14.510Z,11.07
2018-07-22T02:21:42.641Z,11.60
2018-07-22T02:24:10.856Z,10.97
2018-07-22T02:26:38.990Z,10.73
2018-07-22T02:29:07.173Z,11.43
2018-07-22T02:31:35.319Z,12.00
2018-07-22T02:34:03.501Z,11.70
2018-07-22T02:36:31.637Z,11.20
2018-07-22T02:38:59.785Z,11.50
2018-07-22T02:41:27.986Z,11.33
2018-07-22T02:43:56.271Z,11.50
2018-07-22T02:46:24.410Z,11.50
2018-07-22T02:48:52.533Z,10.33
2018-07-22T02:51:20.761Z,12.00
2018-07-22T02:53:48.790Z,12.00
2018-07-22T02:56:16.921Z,11.60
2018-07-22T02:58:45.046Z,12.27
2018-07-22T03:01:13.178Z,11.10
2018-07-22T03:03:41.306Z,11.10
2018-07-22T03:06:09.461Z,10.53
2018-07-22T03:08:37.581Z,11.23
2018-07-22T03:11:05.719Z,12.33
2018-07-22T03:13:33.845Z,12.20
2018-07-22T03:16:01.975Z,12.63
2018-07-22T03:18:30.137Z,11.47
2018-07-22T03:20:58.269Z,12.40
2018-07-22T03:23:26.510Z,13.40
2018-07-22T03:25:54.646Z,12.60
2018-07-22T03:28:22.761Z,14.13
2018-07-22T03:30:50.680Z,13.60
2018-07-22T03:33:18.802Z,14.60
2018-07-22T03:35:46.932Z,14.13
2018-07-22T03:38:15.042Z,13.47
2018-07-22T03:40:43.169Z,13.40
2018-07-22T03:43:11.296Z,14.10
2018-07-22T03:45:39.423Z,14.40
2018-07-22T03:48:07.545Z,13.77
2018-07-22T03:50:35.669Z,14.87
2018-07-22T03:53:03.788Z,14.50
2018-07-22T03:55:31.917Z,12.60
2018-07-22T03:58:00.037Z,14.17
2018-07-22T04:00:28.177Z,13.40
2018-07-22T04:02:56.289Z,13.03
2018-07-22T04:05:24.413Z,12.93
2018-07-22T04:07:52.541Z,13.60
2018-07-22T04:10:20.673Z,14.47
2018-07-22T04:12:48.784Z,13.37
2018-07-22T04:15:16.919Z,13.37
2018-07-22T04:17:45.052Z,14.40
2018-07-22T04:20:13.177Z,14.67
2018-07-22T04:22:41.305Z,14.90
2018-07-22T04:25:09.437Z,14.20
2018-07-22T04:27:37.569Z,14.70
2018-07-22T04:30:06.084Z,14.37
2018-07-22T04:32:34.213Z,14.10
2018-07-22T04:35:02.471Z,14.67
2018-07-22T04:37:30.684Z,16.00
2018-07-22T04:39:58.801Z,15.20
2018-07-22T04:42:26.937Z,14.70
2018-07-22T04:44:55.065Z,14.40
2018-07-22T04:47:23.192Z,15.00
2018-07-22T04:49:51.317Z,15.10
2018-07-22T04:52:19.457Z,13.43
2018-07-22T04:54:47.569Z,13.90
2018-07-22T04:57:15.705Z,13.50
2018-07-22T04:59:43.825Z,12.90
2018-07-22T05:02:11.976Z,12.67
2018-07-22T05:04:40.113Z,12.63
2018-07-22T05:07:08.242Z,11.50
2018-07-22T05:09:36.372Z,11.90
2018-07-22T05:12:04.512Z,13.30
2018-07-22T05:14:32.625Z,13.03
2018-07-22T05:17:00.765Z,13.00
2018-07-22T05:19:28.877Z,14.70
2018-07-22T05:21:57.043Z,15.23
2018-07-22T05:24:25.165Z,13.30
2018-07-22T05:26:53.277Z,12.13
2018-07-22T05:29:21.389Z,12.23
2018-07-22T05:31:49.516Z,12.03
2018-07-22T05:34:17.629Z,12.60
2018-07-22T05:36:45.749Z,12.23
2018-07-22T05:39:13.872Z,10.40
2018-07-22T05:41:42.332Z,10.90
2018-07-22T05:44:10.449Z,11.77
2018-07-22T05:46:38.581Z,12.93
2018-07-22T05:49:06.696Z,12.30
2018-07-22T05:51:34.849Z,12.07
2018-07-22T05:54:03.030Z,12.70
2018-07-22T05:56:31.128Z,12.83
2018-07-22T05:58:59.253Z,12.50
2018-07-22T06:01:27.398Z,12.33
2018-07-22T06:03:56.075Z,13.70
2018-07-22T06:06:24.216Z,12.63
2018-07-22T06:08:52.351Z,13.87
2018-07-22T06:11:20.481Z,12.80
2018-07-22T06:13:48.612Z,12.63
2018-07-22T06:16:16.744Z,12.80
2018-07-22T06:18:44.898Z,13.40
2018-07-22T06:21:13.065Z,13.37
2018-07-22T06:23:41.210Z,12.20
2018-07-22T06:26:09.339Z,12.03
2018-07-22T06:28:37.494Z,12.50
2018-07-22T06:31:05.636Z,13.27
2018-07-22T06:33:33.777Z,10.50
2018-07-22T06:36:01.911Z,12.17
2018-07-22T06:38:30.075Z,11.93
2018-07-22T06:40:58.208Z,11.87
2018-07-22T06:43:26.340Z,12.10
2018-07-22T06:45:54.467Z,12.10
2018-07-22T06:48:22.614Z,11.33
2018-07-22T06:50:50.744Z,11.73
2018-07-22T06:53:18.886Z,11.87
2018-07-22T06:55:47.018Z,12.07
2018-07-22T06:58:15.156Z,12.60
2018-07-22T07:00:43.293Z,11.97
2018-07-22T07:03:11.431Z,12.20
2018-07-22T07:05:39.570Z,10.90
2018-07-22T07:08:07.710Z,11.00
2018-07-22T07:10:35.841Z,11.57
2018-07-22T07:13:03.989Z,10.30
2018-07-22T07:15:32.115Z,11.67
2018-07-22T07:18:00.033Z,11.83
2018-07-22T07:20:28.149Z,11.83
2018-07-22T07:22:56.276Z,11.50
2018-07-22T07:25:24.399Z,11.30
2018-07-22T07:27:52.525Z,12.43
2018-07-22T07:30:20.629Z,11.23
2018-07-22T07:32:48.773Z,12.20
2018-07-22T07:35:16.901Z,13.17
2018-07-22T07:37:45.051Z,12.40
2018-07-22T07:40:13.184Z,12.10
2018-07-22T07:42:41.322Z,12.17
2018-07-22T07:45:09.453Z,11.77
2018-07-22T07:47:37.714Z,12.10
2018-07-22T07:50:05.941Z,12.77
2018-07-22T07:52:34.255Z,11.10
2018-07-22T07:55:02.384Z,10.77
2018-07-22T07:57:30.521Z,10.77
2018-07-22T07:59:58.687Z,11.40
2018-07-22T08:02:26.828Z,9.43
2018-07-22T08:04:55.433Z,10.03
2018-07-22T08:07:23.579Z,10.13
2018-07-22T08:09:51.715Z,8.97
2018-07-22T08:12:19.848Z,8.90
2018-07-22T08:14:47.982Z,8.87
2018-07-22T08:17:16.129Z,9.50
2018-07-22T08:19:44.282Z,11.20
2018-07-22T08:22:12.438Z,11.77
2018-07-22T08:24:40.648Z,10.80
2018-07-22T08:27:08.786Z,11.73
2018-07-22T08:29:36.936Z,11.77
2018-07-22T08:32:05.941Z,9.30
2018-07-22T08:34:34.097Z,10.37
2018-07-22T08:37:02.660Z,9.93
2018-07-22T08:39:31.782Z,9.70
2018-07-22T08:42:00.366Z,10.03
2018-07-22T08:44:28.488Z,10.57
2018-07-22T08:46:56.635Z,9.97
2018-07-22T08:49:24.826Z,10.40
2018-07-22T08:51:57.009Z,9.27
2018-07-22T08:54:25.154Z,10.37
2018-07-22T08:56:53.289Z,11.57
2018-07-22T08:59:21.421Z,11.60
2018-07-22T09:01:49.556Z,11.67
2018-07-22T09:04:17.827Z,10.60
2018-07-22T09:06:46.002Z,10.93
2018-07-22T09:09:14.112Z,10.63
2018-07-22T09:11:42.318Z,10.20
2018-07-22T09:14:10.632Z,10.80
2018-07-22T09:16:38.764Z,11.23
2018-07-22T09:19:06.940Z,10.63
2018-07-22T09:21:35.093Z,10.20
2018-07-22T09:24:03.277Z,11.30
2018-07-22T09:26:31.417Z,11.50
2018-07-22T09:28:59.559Z,12.03
2018-07-22T09:31:27.709Z,11.87
2018-07-22T09:33:55.862Z,12.23
2018-07-22T09:36:24.093Z,12.23
2018-07-22T09:38:52.176Z,12.03
2018-07-22T09:41:20.338Z,12.27
2018-07-22T09:43:48.645Z,13.03
2018-07-22T09:46:17.029Z,11.80
2018-07-22T09:48:45.165Z,11.97
2018-07-22T09:51:13.064Z,11.30
2018-07-22T09:53:41.394Z,11.50
2018-07-22T09:56:09.618Z,12.40
2018-07-22T09:58:37.821Z,12.13
2018-07-22T10:01:05.970Z,11.17
2018-07-22T10:03:34.111Z,13.73
2018-07-22T10:06:02.269Z,12.70
2018-07-22T10:08:30.405Z,12.27
2018-07-22T10:10:58.560Z,13.07
2018-07-22T10:13:26.720Z,12.80
2018-07-22T10:15:54.875Z,12.20
2018-07-22T10:18:23.008Z,13.80
2018-07-22T10:20:51.156Z,11.93
2018-07-22T10:23:19.370Z,13.07
2018-07-22T10:25:47.485Z,13.40
2018-07-22T10:28:15.635Z,13.37
2018-07-22T10:30:43.781Z,12.77
2018-07-22T10:33:11.945Z,12.90
2018-07-22T10:35:40.090Z,12.90
2018-07-22T10:38:08.225Z,12.80
2018-07-22T10:40:36.368Z,12.80
2018-07-22T10:43:04.488Z,13.90
2018-07-22T10:45:32.629Z,14.00
2018-07-22T10:48:00.773Z,12.60
2018-07-22T10:50:28.923Z,12.80
2018-07-22T10:52:58.086Z,13.17
2018-07-22T10:55:26.272Z,13.23
2018-07-22T10:57:54.422Z,13.00
2018-07-22T11:00:22.560Z,11.50
2018-07-22T11:02:50.709Z,11.80
2018-07-22T11:05:18.834Z,12.70
2018-07-22T11:07:46.949Z,11.67
2018-07-22T11:10:15.082Z,12.07
2018-07-22T11:12:43.226Z,11.17
2018-07-22T11:15:11.383Z,11.87
2018-07-22T11:17:39.548Z,10.97
2018-07-22T11:20:07.690Z,11.80
2018-07-22T11:22:35.841Z,11.03
2018-07-22T11:25:04.042Z,10.80
2018-07-22T11:27:32.180Z,11.23
2018-07-22T11:30:00.330Z,10.90
2018-07-22T11:32:28.465Z,12.17
2018-07-22T11:34:56.600Z,11.87
2018-07-22T11:37:24.726Z,12.60
2018-07-22T11:39:53.975Z,11.30
2018-07-22T11:42:22.225Z,12.40
2018-07-22T11:44:50.465Z,11.47
2018-07-22T11:47:18.646Z,11.93
2018-07-22T11:49:46.632Z,12.30
2018-07-22T11:52:14.789Z,12.10
2018-07-22T11:54:44.226Z,11.50
2018-07-22T11:57:18.532Z,12.37
2018-07-22T11:59:50.477Z,12.40
2018-07-22T12:02:18.384Z,10.93
2018-07-22T12:04:46.541Z,11.90
2018-07-22T12:07:14.672Z,11.70
2018-07-22T12:09:42.845Z,11.73
2018-07-22T12:12:11.033Z,11.30
2018-07-22T12:14:39.157Z,13.50
2018-07-22T12:17:07.325Z,11.93
2018-07-22T12:19:35.452Z,12.00
2018-07-22T12:22:03.365Z,12.00
2018-07-22T12:24:31.489Z,11.57
2018-07-22T12:26:59.704Z,12.47
2018-07-22T12:29:27.813Z,11.73
2018-07-22T12:31:55.945Z,11.57
2018-07-22T12:34:24.159Z,12.27
2018-07-22T12:36:52.204Z,11.17
2018-07-22T12:39:20.377Z,12.27
2018-07-22T12:41:48.513Z,11.00
2018-07-22T12:44:16.681Z,12.40
2018-07-22T12:46:44.826Z,11.63
2018-07-22T12:49:12.972Z,11.93
2018-07-22T12:51:41.118Z,11.50
2018-07-22T12:54:09.301Z,11.90
2018-07-22T12:56:37.457Z,12.37
2018-07-22T12:59:05.587Z,12.73
2018-07-22T13:01:33.762Z,13.23
2018-07-22T13:04:01.899Z,14.23
2018-07-22T13:06:30.052Z,15.03
2018-07-22T13:08:58.210Z,14.50
2018-07-22T13:11:26.364Z,16.90
2018-07-22T13:13:54.516Z,17.43
2018-07-22T13:16:22.701Z,16.53
2018-07-22T13:18:50.892Z,16.43
2018-07-22T13:21:20.000Z,16.13
2018-07-22T13:23:48.140Z,17.00
2018-07-22T13:26:16.288Z,15.20
2018-07-22T13:28:44.425Z,14.80
2018-07-22T13:31:12.553Z,15.60
2018-07-22T13:33:40.697Z,13.90
2018-07-22T13:36:08.845Z,11.77
2018-07-22T13:38:36.992Z,13.63
2018-07-22T13:41:05.133Z,11.40
2018-07-22T13:43:33.282Z,11.33
2018-07-22T13:46:01.409Z,11.70
2018-07-22T13:48:29.573Z,10.40
2018-07-22T13:50:57.713Z,9.00
2018-07-22T13:53:25.851Z,9.10
2018-07-22T13:55:53.966Z,8.70
2018-07-22T13:58:22.085Z,8.77
2018-07-22T14:00:50.218Z,9.80
2018-07-22T14:03:18.489Z,10.17
2018-07-22T14:05:46.613Z,12.00
2018-07-22T14:08:14.835Z,10.67
2018-07-22T14:10:42.961Z,12.43
2018-07-22T14:13:11.094Z,13.03
2018-07-22T14:15:39.293Z,13.17
2018-07-22T14:18:07.400Z,14.13
2018-07-22T14:20:35.530Z,17.07
2018-07-22T14:23:03.663Z,17.90
2018-07-22T14:25:31.825Z,18.60
2018-07-22T14:28:00.011Z,18.87
2018-07-22T14:30:28.139Z,18.77
2018-07-22T14:32:56.284Z,17.63
2018-07-22T14:35:24.433Z,14.13
2018-07-22T14:37:52.580Z,16.50
2018-07-22T14:40:21.522Z,17.03
2018-07-22T14:42:49.696Z,16.00
2018-07-22T14:45:17.854Z,16.40
2018-07-22T14:47:46.017Z,17.10
2018-07-22T14:50:14.181Z,19.03
2018-07-22T14:52:42.378Z,18.87
2018-07-22T14:55:14.049Z,18.00
2018-07-22T14:57:42.185Z,19.30
2018-07-22T15:00:10.348Z,19.00
2018-07-22T15:02:38.505Z,18.97
2018-07-22T15:05:06.704Z,18.43
2018-07-22T15:07:34.845Z,20.57
2018-07-22T15:10:03.001Z,20.87
2018-07-22T15:12:31.155Z,22.37
2018-07-22T15:14:59.331Z,22.60
2018-07-22T15:17:27.494Z,21.17
2018-07-22T15:19:55.777Z,22.13
2018-07-22T15:22:24.351Z,23.03
2018-07-22T15:24:52.516Z,21.87
2018-07-22T15:27:21.692Z,23.67
2018-07-22T15:29:49.863Z,20.90
2018-07-22T15:32:18.003Z,22.07
2018-07-22T15:34:46.145Z,23.33
2018-07-22T15:37:14.273Z,23.07
2018-07-22T15:39:42.469Z,20.63
2018-07-22T15:42:10.721Z,19.70
2018-07-22T15:44:38.920Z,22.17
2018-07-22T15:47:07.045Z,22.47
2018-07-22T15:49:35.225Z,21.47
2018-07-22T15:52:03.361Z,22.90
2018-07-22T15:54:31.513Z,26.70
2018-07-22T15:56:59.637Z,27.97
2018-07-22T15:59:27.768Z,27.20
2018-07-22T16:01:55.919Z,24.80
2018-07-22T16:04:24.064Z,23.40
2018-07-22T16:06:52.253Z,22.47
2018-07-22T16:09:20.380Z,22.07
2018-07-22T16:11:48.517Z,19.73
2018-07-22T16:14:16.713Z,18.53
2018-07-22T16:16:44.849Z,17.53
2018-07-22T16:19:13.021Z,19.20
2018-07-22T16:21:41.182Z,13.17
2018-07-22T16:24:09.361Z,11.27
2018-07-22T16:26:37.528Z,10.80
2018-07-22T16:29:05.741Z,8.80
2018-07-22T16:31:33.896Z,8.10
2018-07-22T16:34:02.030Z,8.60
2018-07-22T16:36:30.166Z,7.33
2018-07-22T16:38:58.305Z,8.27
2018-07-22T16:41:26.448Z,9.90
2018-07-22T16:43:54.604Z,5.60
2018-07-22T16:46:22.749Z,5.17
2018-07-22T16:48:50.890Z,5.50
2018-07-22T16:51:19.118Z,6.57
2018-07-22T16:53:47.321Z,8.60
2018-07-22T16:56:15.401Z,8.60
2018-07-22T16:58:43.537Z,8.40
2018-07-22T17:01:11.653Z,7.50
2018-07-22T17:03:39.789Z,8.80
2018-07-22T17:06:07.729Z,11.10
2018-07-22T17:08:35.901Z,11.97
2018-07-22T17:11:04.033Z,11.03
2018-07-22T17:13:32.185Z,8.00
2018-07-22T17:16:00.358Z,9.90
2018-07-22T17:18:28.489Z,8.53
2018-07-22T17:20:56.640Z,7.37
2018-07-22T17:23:24.817Z,8.90
2018-07-22T17:25:52.973Z,7.67
2018-07-22T17:28:21.112Z,9.77
2018-07-22T17:30:49.357Z,9.67
2018-07-22T17:33:17.510Z,9.90
2018-07-22T17:35:45.669Z,10.13
2018-07-22T17:38:13.866Z,10.40
2018-07-22T17:40:42.077Z,8.77
2018-07-22T17:43:10.268Z,9.70
2018-07-22T17:48:31.647Z,9.10
2018-07-22T17:50:59.827Z,8.80
2018-07-22T17:53:27.997Z,7.90
2018-07-22T17:55:56.417Z,7.43
2018-07-22T17:58:25.008Z,7.80
2018-07-22T18:00:53.179Z,7.97
2018-07-22T18:03:29.037Z,8.73
2018-07-22T18:05:57.224Z,8.70
2018-07-22T18:08:25.364Z,7.00
2018-07-22T18:10:54.178Z,7.20
2018-07-22T18:13:22.340Z,8.60
2018-07-22T18:15:50.552Z,7.83
2018-07-22T18:18:18.698Z,7.10
2018-07-22T18:20:47.688Z,7.23
2018-07-22T18:23:15.831Z,7.13
2018-07-22T18:25:44.849Z,7.33
2018-07-22T18:28:13.601Z,6.90
2018-07-22T18:33:47.750Z,6.43
2018-07-22T18:36:15.890Z,6.67
2018-07-22T18:38:44.070Z,6.63
2018-07-22T18:41:12.230Z,6.97
2018-07-22T18:43:40.360Z,6.50
2018-07-22T18:46:08.494Z,6.30
2018-07-22T18:48:36.745Z,7.43
2018-07-22T18:51:04.749Z,8.03
2018-07-22T18:53:32.869Z,7.30
2018-07-22T18:56:01.013Z,7.67
2018-07-22T18:58:29.124Z,8.57
2018-07-22T19:00:57.260Z,9.00
2018-07-22T19:03:25.365Z,9.27
2018-07-22T19:05:56.806Z,9.50
2018-07-22T19:08:24.933Z,9.17
2018-07-22T19:10:53.149Z,10.30
2018-07-22T19:13:21.311Z,10.90
2018-07-22T19:15:50.464Z,12.13
2018-07-22T19:18:37.197Z,12.20
2018-07-22T19:21:08.697Z,13.27
2018-07-22T19:23:40.436Z,12.23
2018-07-22T19:26:08.605Z,13.63
2018-07-22T19:28:36.761Z,13.37
2018-07-22T19:31:04.910Z,13.97
2018-07-22T19:33:33.051Z,14.00
2018-07-22T19:36:01.213Z,14.40
2018-07-22T19:38:29.348Z,12.80
2018-07-22T19:40:57.545Z,9.60
2018-07-22T19:43:25.679Z,9.73
2018-07-22T19:45:53.833Z,11.17
2018-07-22T19:48:21.997Z,10.00
2018-07-22T19:50:53.954Z,9.80
2018-07-22T19:53:23.100Z,11.97
2018-07-22T19:55:51.562Z,11.47
2018-07-22T19:58:19.725Z,9.50
2018-07-22T20:00:47.898Z,9.10
2018-07-22T20:03:16.071Z,9.83
2018-07-22T20:05:44.253Z,15.63
2018-07-22T20:08:12.405Z,11.50
2018-07-22T20:19:33.626Z,14.20
2018-07-22T20:22:09.936Z,15.37
2018-07-22T20:24:50.283Z,13.60
2018-07-22T20:27:40.889Z,13.50
2018-07-22T20:30:09.092Z,14.47
2018-07-22T20:32:37.241Z,16.77
2018-07-22T20:35:05.485Z,15.17
2018-07-22T20:37:33.662Z,11.67
2018-07-22T20:40:01.818Z,14.07
2018-07-22T20:42:29.977Z,12.60
2018-07-22T20:44:58.258Z,10.80
2018-07-22T20:47:26.423Z,11.60
2018-07-22T20:49:54.572Z,10.83
2018-07-22T20:52:22.727Z,9.17
2018-07-22T20:54:50.857Z,9.87
2018-07-22T20:57:19.013Z,9.90
2018-07-22T20:59:47.152Z,11.33
2018-07-22T21:02:15.353Z,10.20
2018-07-22T21:04:43.493Z,8.50
2018-07-22T21:07:11.822Z,8.60
2018-07-22T21:09:39.992Z,9.10
2018-07-22T21:12:53.295Z,9.40
2018-07-22T21:15:21.494Z,7.93
2018-07-22T21:17:50.607Z,6.40
2018-07-22T21:20:19.758Z,6.77
2018-07-22T21:22:47.933Z,8.63
2018-07-22T21:25:16.509Z,10.10
2018-07-22T21:27:44.837Z,12.50
2018-07-22T21:30:13.525Z,9.97
2018-07-22T21:32:41.804Z,9.73
2018-07-22T21:35:10.051Z,12.37
2018-07-22T21:37:38.380Z,19.10
2018-07-22T21:40:06.656Z,15.77
2018-07-22T21:42:34.872Z,14.70
2018-07-22T21:45:03.877Z,15.20
2018-07-22T21:47:32.026Z,12.93
2018-07-22T21:50:00.185Z,10.63
2018-07-22T21:52:28.385Z,7.90
2018-07-22T21:54:56.572Z,9.90
2018-07-22T21:57:24.794Z,11.97
2018-07-22T21:59:52.950Z,9.50
2018-07-22T22:02:21.111Z,8.53
2018-07-22T22:04:49.281Z,9.03
2018-07-22T22:07:17.443Z,11.43
2018-07-22T22:09:45.589Z,21.60
2018-07-22T22:12:13.736Z,21.00
2018-07-22T22:14:41.882Z,14.50
2018-07-22T22:17:10.065Z,14.97
2018-07-22T22:19:38.179Z,30.20
2018-07-22T22:22:06.381Z,18.03
2018-07-22T22:24:34.621Z,17.27
2018-07-22T22:27:02.743Z,10.00
2018-07-22T22:29:30.937Z,9.80
2018-07-22T22:31:59.109Z,10.20
2018-07-22T22:34:27.280Z,11.03
2018-07-22T22:36:56.057Z,9.60
2018-07-22T22:39:24.203Z,17.20
2018-07-22T22:41:52.324Z,11.00
2018-07-22T22:44:20.578Z,17.43
2018-07-22T22:46:48.748Z,24.30
2018-07-22T22:49:16.896Z,21.53
2018-07-22T22:51:46.034Z,22.00
2018-07-22T22:54:14.237Z,26.30
2018-07-22T22:56:42.433Z,28.50
2018-07-22T22:59:16.974Z,16.30
2018-07-22T23:01:45.437Z,20.53
2018-07-22T23:04:13.717Z,24.07
2018-07-22T23:06:41.886Z,18.50
2018-07-22T23:09:11.850Z,19.57
2018-07-22T23:11:40.292Z,16.63
2018-07-22T23:14:11.918Z,15.70
2018-07-22T23:16:40.546Z,16.53
2018-07-22T23:19:08.823Z,17.30
2018-07-22T23:21:37.094Z,16.40
2018-07-22T23:24:05.289Z,16.70
2018-07-22T23:26:33.589Z,15.63
2018-07-22T23:29:01.929Z,15.67
2018-07-22T23:31:30.097Z,18.40
2018-07-22T23:33:58.257Z,15.77
2018-07-22T23:36:26.471Z,18.63
2018-07-22T23:38:54.662Z,17.53
2018-07-22T23:41:22.849Z,13.97
2018-07-22T23:43:51.030Z,18.07
2018-07-22T23:46:19.250Z,18.73
2018-07-22T23:48:47.429Z,17.33
2018-07-22T23:51:15.640Z,16.30
2018-07-22T23:53:43.826Z,17.40
2018-07-22T23:56:11.970Z,17.20
2018-07-22T23:58:40.180Z,18.93
